Time;durP1;ratioP1;P1;durP2;ratioP2;P2;SDS_P1;SDS_P2;PMS_P1;PMS_P2;Temp;Humidity;BMP_temperature;BMP_pressure;BME280_temperature;BME280_humidity;BME280_pressure;Samples;Min_cycle;Max_cycle;Signal;HPM_P1;HPM_P2
2021/07/04 00:01:45;;;;;;;6.50;5.90;;;19.90;99.90;;;;;;6183434;23;20356;-91
2021/07/04 00:04:50;;;;;;;8.20;5.97;;;19.90;99.90;;;;;;6182785;23;20498;-91
2021/07/04 00:14:57;;;;;;;6.83;6.23;;;19.70;99.90;;;;;;6182370;23;20480;-91
2021/07/04 00:18:32;;;;;;;7.80;7.10;;;19.60;99.90;;;;;;6215188;22;20515;-92
2021/07/04 00:21:31;;;;;;;7.13;6.53;;;19.50;99.90;;;;;;6255107;23;20417;-92
2021/07/04 00:28:25;;;;;;;7.20;6.60;;;19.40;99.90;;;;;;6172167;23;20550;-92
2021/07/04 00:31:30;;;;;;;7.80;7.20;;;19.40;99.90;;;;;;6180077;23;20403;-91
2021/07/04 01:05:07;;;;;;;;;;;;;;;;;;;;;
2021/07/04 01:17:58;;;;;;;7.20;6.57;;;19.10;99.90;;;;;;5898712;24;20437;-92
2021/07/04 01:34:24;;;;;;;7.30;6.57;;;19.00;99.90;;;;;;5965898;23;20494;-94
2021/07/04 01:48:40;;;;;;;7.10;6.40;;;18.80;99.90;;;;;;6149411;23;20744;-94
2021/07/04 02:47:02;;;;;;;7.70;7.07;;;18.50;99.90;;;;;;6144859;23;20446;-87
2021/07/04 02:49:45;;;;;;;9.53;7.80;;;18.50;99.90;;;;;;6227265;22;20597;-93
2021/07/04 02:55:27;;;;;;;8.30;7.50;;;18.30;99.90;;;;;;6221891;23;20445;-93
2021/07/04 02:57:56;;;;;;;9.13;8.23;;;18.20;99.90;;;;;;6222953;23;20421;-93
2021/07/04 03:00:37;;;;;;;9.17;8.23;;;18.20;99.90;;;;;;6224015;23;20472;-93
2021/07/04 03:05:51;;;;;;;9.77;8.77;;;18.20;99.90;;;;;;6238732;22;20412;-94
2021/07/04 03:08:19;;;;;;;9.53;8.53;;;18.30;99.90;;;;;;6237278;22;20439;-93
2021/07/04 03:10:52;;;;;;;9.60;8.70;;;18.30;99.90;;;;;;6239344;23;20481;-93
2021/07/04 03:13:39;;;;;;;7.93;7.23;;;18.30;99.90;;;;;;6237083;23;20425;-92
2021/07/04 03:16:34;;;;;;;9.57;8.67;;;18.40;99.90;;;;;;6241850;23;20405;-93
2021/07/04 03:19:22;;;;;;;7.77;7.13;;;18.50;99.90;;;;;;6240099;23;20464;-93
2021/07/04 03:21:58;;;;;;;9.63;8.50;;;18.50;99.90;;;;;;6234919;23;20390;-93
2021/07/04 03:24:44;;;;;;;8.40;7.53;;;18.50;99.90;;;;;;6229618;23;20435;-92
2021/07/04 03:27:14;;;;;;;9.07;8.20;;;18.50;99.90;;;;;;6227427;23;20806;-93
2021/07/04 03:29:53;;;;;;;8.80;7.40;;;18.50;99.90;;;;;;6224094;23;20413;-93
2021/07/04 03:35:15;;;;;;;8.50;7.70;;;18.60;99.90;;;;;;6218319;23;20437;-91
2021/07/04 03:37:57;;;;;;;10.17;8.10;;;18.50;99.90;;;;;;6222667;23;20428;-91
2021/07/04 03:40:38;;;;;;;8.30;7.60;;;18.60;99.90;;;;;;6221308;23;20491;-91
2021/07/04 03:43:14;;;;;;;10.03;9.13;;;18.60;99.90;;;;;;6221780;23;20411;-90
2021/07/04 03:45:44;;;;;;;9.10;8.20;;;18.60;99.90;;;;;;6220114;23;20413;-91
2021/07/04 03:48:11;;;;;;;9.30;8.50;;;18.70;99.90;;;;;;6220989;23;20413;-91
2021/07/04 03:50:52;;;;;;;8.83;7.90;;;18.70;99.90;;;;;;6235861;22;20410;-91
2021/07/04 03:53:23;;;;;;;9.07;8.27;;;18.70;99.90;;;;;;6230314;23;20406;-93
2021/07/04 03:58:31;;;;;;;8.50;7.73;;;18.70;99.90;;;;;;6165896;23;20768;-90
2021/07/04 04:01:04;;;;;;;9.03;8.23;;;18.80;99.90;;;;;;6221273;23;20788;-91
2021/07/04 04:03:33;;;;;;;9.33;8.53;;;18.80;99.90;;;;;;6220553;23;20470;-91
2021/07/04 04:06:03;;;;;;;8.70;7.93;;;18.80;99.90;;;;;;6221701;23;21068;-92
2021/07/04 04:08:50;;;;;;;9.63;8.83;;;18.90;99.90;;;;;;6221224;23;20433;-91
2021/07/04 04:11:28;;;;;;;10.20;9.03;;;19.00;99.90;;;;;;6237821;23;20395;-91
2021/07/04 04:13:57;;;;;;;9.50;8.00;;;19.00;99.90;;;;;;6233727;23;20409;-91
2021/07/04 04:16:33;;;;;;;8.90;7.97;;;19.10;99.90;;;;;;6220308;23;20492;-91
2021/07/04 04:19:01;;;;;;;10.47;9.47;;;19.20;99.90;;;;;;6220090;23;20438;-91
2021/07/04 04:21:34;;;;;;;9.03;8.13;;;19.20;99.90;;;;;;6219857;23;20900;-91
2021/07/04 04:24:18;;;;;;;10.00;9.00;;;19.30;99.90;;;;;;6236584;22;20379;-92
2021/07/04 04:26:51;;;;;;;9.60;8.70;;;19.40;99.90;;;;;;6233269;23;20796;-92
2021/07/04 04:29:21;;;;;;;10.00;9.13;;;19.40;99.90;;;;;;6219325;23;20429;-92
2021/07/04 04:31:52;;;;;;;9.70;8.80;;;19.40;99.90;;;;;;6225325;22;20431;-93
2021/07/04 04:34:19;;;;;;;9.50;8.57;;;19.40;99.90;;;;;;6239044;23;20460;-94
2021/07/04 04:36:46;;;;;;;10.40;9.30;;;19.50;99.90;;;;;;6232876;23;20408;-93
2021/07/04 04:39:14;;;;;;;9.30;8.50;;;19.50;99.90;;;;;;6223334;23;20413;-93
2021/07/04 04:41:42;;;;;;;9.57;8.53;;;19.40;99.90;;;;;;6226116;23;20425;-92
2021/07/04 04:44:12;;;;;;;10.40;9.40;;;19.50;99.90;;;;;;6232881;23;20444;-93
2021/07/04 04:46:39;;;;;;;9.00;8.20;;;19.50;99.90;;;;;;6223630;23;20425;-93
2021/07/04 04:49:15;;;;;;;7.80;7.10;;;19.50;99.90;;;;;;6221517;23;20482;-93
2021/07/04 04:51:45;;;;;;;9.40;8.60;;;19.50;99.90;;;;;;6231417;23;20431;-92
2021/07/04 04:54:15;;;;;;;8.50;7.80;;;19.50;99.90;;;;;;6231425;23;20452;-92
2021/07/04 04:57:13;;;;;;;8.37;7.57;;;19.60;99.90;;;;;;6232958;23;20400;-91
2021/07/04 04:59:43;;;;;;;8.50;7.70;;;19.50;99.90;;;;;;6241372;23;20409;-93
2021/07/04 05:02:20;;;;;;;8.77;7.97;;;19.60;99.90;;;;;;6230606;23;20413;-93
2021/07/04 05:07:48;;;;;;;8.40;7.53;;;19.60;99.90;;;;;;6227110;23;20491;-92
2021/07/04 05:13:12;;;;;;;8.80;8.00;;;19.60;99.90;;;;;;6224750;23;20402;-93
2021/07/04 05:16:12;;;;;;;8.13;7.33;;;19.60;99.90;;;;;;6224966;23;20437;-93
2021/07/04 05:18:52;;;;;;;8.47;7.67;;;19.70;99.90;;;;;;6221830;23;20438;-92
2021/07/04 05:26:43;;;;;;;7.30;6.70;;;19.70;99.90;;;;;;6194347;23;20407;-83
2021/07/04 05:29:11;;;;;;;6.90;6.40;;;19.70;99.90;;;;;;6198175;23;20486;-83
2021/07/04 05:31:38;;;;;;;6.50;6.00;;;19.80;99.90;;;;;;6193452;23;20490;-84
2021/07/04 05:34:05;;;;;;;7.60;6.20;;;19.80;99.90;;;;;;6185265;23;20416;-83
2021/07/04 05:36:32;;;;;;;6.27;5.77;;;19.80;99.90;;;;;;6196743;23;20422;-82
2021/07/04 05:38:59;;;;;;;7.63;6.63;;;19.90;99.90;;;;;;6191890;23;20414;-82
2021/07/04 05:41:25;;;;;;;6.27;5.77;;;19.90;99.90;;;;;;6190782;23;20791;-82
2021/07/04 05:43:52;;;;;;;6.43;5.83;;;20.00;99.90;;;;;;6195206;23;20436;-83
2021/07/04 05:46:20;;;;;;;5.90;5.40;;;20.20;99.90;;;;;;6194761;23;20737;-83
2021/07/04 05:48:47;;;;;;;6.23;5.73;;;20.70;99.90;;;;;;6189118;23;20405;-84
2021/07/04 05:51:15;;;;;;;5.83;5.33;;;21.40;99.90;;;;;;6187318;23;20406;-84
2021/07/04 05:53:41;;;;;;;6.73;6.13;;;22.10;99.90;;;;;;6187600;23;20414;-84
2021/07/04 05:56:08;;;;;;;6.90;6.30;;;22.80;99.90;;;;;;6191163;23;20969;-84
2021/07/04 05:58:35;;;;;;;6.83;6.13;;;23.30;99.90;;;;;;6193776;23;20439;-84
2021/07/04 06:01:02;;;;;;;6.53;6.03;;;23.70;99.90;;;;;;6189005;23;20700;-84
2021/07/04 06:03:31;;;;;;;6.10;5.70;;;24.00;99.90;;;;;;6194782;23;20412;-83
2021/07/04 06:05:58;;;;;;;5.90;5.50;;;24.40;99.90;;;;;;6208792;23;20425;-83
2021/07/04 06:08:25;;;;;;;7.27;6.57;;;24.30;99.90;;;;;;6189961;23;20417;-83
2021/07/04 06:10:52;;;;;;;7.17;6.57;;;24.10;99.90;;;;;;6196537;23;20422;-83
2021/07/04 06:13:19;;;;;;;7.73;6.93;;;23.60;99.90;;;;;;6190553;23;20413;-83
2021/07/04 06:15:47;;;;;;;7.33;6.03;;;23.40;99.90;;;;;;6187924;23;20585;-83
2021/07/04 06:18:14;;;;;;;6.73;6.10;;;23.20;99.90;;;;;;6192185;23;20499;-83
2021/07/04 06:20:42;;;;;;;7.23;6.53;;;23.10;99.90;;;;;;6188461;23;20504;-83
2021/07/04 06:23:08;;;;;;;6.70;6.13;;;23.20;99.90;;;;;;6188485;23;20412;-82
2021/07/04 06:25:35;;;;;;;6.70;6.13;;;23.30;99.90;;;;;;6202679;23;20420;-82
2021/07/04 06:28:02;;;;;;;6.20;5.60;;;23.50;99.90;;;;;;6211057;23;20413;-83
2021/07/04 06:30:29;;;;;;;5.67;5.20;;;23.80;99.90;;;;;;6210216;23;20403;-83
2021/07/04 06:32:56;;;;;;;7.07;6.37;;;24.40;99.90;;;;;;6194900;23;20493;-84
2021/07/04 06:35:22;;;;;;;6.50;5.90;;;24.90;99.90;;;;;;6187657;23;20537;-84
2021/07/04 06:37:50;;;;;;;6.50;6.00;;;25.60;99.70;;;;;;6187139;23;20908;-84
2021/07/04 06:40:18;;;;;;;7.20;5.83;;;25.90;98.10;;;;;;6190698;23;20471;-83
2021/07/04 06:42:45;;;;;;;7.03;6.40;;;26.60;97.10;;;;;;6199958;23;20410;-84
2021/07/04 06:45:12;;;;;;;6.57;6.07;;;27.00;94.90;;;;;;6187747;23;20450;-84
2021/07/04 06:47:40;;;;;;;6.33;5.70;;;26.90;95.40;;;;;;6186969;23;20411;-83
2021/07/04 06:50:08;;;;;;;5.90;5.50;;;27.30;94.30;;;;;;6186875;23;20401;-85
2021/07/04 06:52:35;;;;;;;6.63;5.70;;;27.70;93.70;;;;;;6187270;23;20433;-84
2021/07/04 06:55:04;;;;;;;6.67;6.17;;;27.80;92.30;;;;;;6192084;23;20450;-84
2021/07/04 06:57:31;;;;;;;6.23;5.73;;;27.90;92.20;;;;;;6187885;23;20417;-84
2021/07/04 06:59:59;;;;;;;6.33;5.83;;;28.20;92.00;;;;;;6186495;23;20402;-84
2021/07/04 07:02:26;;;;;;;6.30;5.70;;;28.70;90.90;;;;;;6187723;23;20400;-83
2021/07/04 07:04:53;;;;;;;6.27;5.83;;;28.90;90.00;;;;;;6204090;23;20469;-85
2021/07/04 07:07:21;;;;;;;6.43;5.97;;;29.20;86.90;;;;;;6201653;23;20413;-84
2021/07/04 07:09:48;;;;;;;6.67;6.10;;;29.10;86.30;;;;;;6189054;23;20412;-83
2021/07/04 07:12:16;;;;;;;6.10;5.60;;;29.10;85.50;;;;;;6194614;23;20402;-84
2021/07/04 07:14:43;;;;;;;5.73;5.17;;;28.80;86.00;;;;;;6213330;23;20433;-83
2021/07/04 07:17:36;;;;;;;5.93;5.40;;;28.40;87.30;;;;;;6213925;23;20419;-83
2021/07/04 07:20:04;;;;;;;6.23;5.63;;;28.80;87.20;;;;;;6211864;23;20458;-84
2021/07/04 07:22:31;;;;;;;5.80;5.40;;;29.50;84.90;;;;;;6190605;23;20409;-84
2021/07/04 07:24:58;;;;;;;5.50;5.10;;;30.00;83.50;;;;;;6204567;23;20617;-84
2021/07/04 07:27:28;;;;;;;6.80;5.53;;;30.20;80.40;;;;;;6211673;23;20461;-83
2021/07/04 07:29:55;;;;;;;5.67;5.17;;;30.30;79.70;;;;;;6207853;23;20406;-84
2021/07/04 07:32:22;;;;;;;6.10;5.60;;;30.80;76.30;;;;;;6196054;23;20393;-84
2021/07/04 07:34:48;;;;;;;5.87;5.37;;;31.00;74.80;;;;;;6190389;23;20422;-84
2021/07/04 07:37:15;;;;;;;5.67;5.17;;;31.70;72.40;;;;;;6195548;23;20416;-84
2021/07/04 07:39:42;;;;;;;6.27;5.67;;;31.90;72.00;;;;;;6193521;23;20409;-84
2021/07/04 07:42:09;;;;;;;5.67;5.27;;;31.30;72.50;;;;;;6189089;23;20406;-83
2021/07/04 07:44:37;;;;;;;5.80;5.30;;;31.10;72.90;;;;;;6194469;23;20415;-84
2021/07/04 07:47:04;;;;;;;6.57;6.17;;;30.40;75.50;;;;;;6188515;23;20489;-83
2021/07/04 07:49:34;;;;;;;5.30;4.90;;;29.60;77.60;;;;;;6187997;23;20485;-84
2021/07/04 07:52:00;;;;;;;6.40;5.80;;;28.90;79.30;;;;;;6187402;23;20418;-84
2021/07/04 07:54:31;;;;;;;7.33;6.73;;;28.30;80.00;;;;;;6188713;23;20734;-84
2021/07/04 07:57:01;;;;;;;7.50;6.80;;;28.00;80.80;;;;;;6186524;23;20448;-84
2021/07/04 07:59:28;;;;;;;5.90;5.50;;;27.60;81.10;;;;;;6187341;23;20401;-83
2021/07/04 08:01:57;;;;;;;6.70;6.20;;;28.10;81.50;;;;;;6186469;23;20416;-84
2021/07/04 08:04:23;;;;;;;6.53;6.13;;;28.00;80.00;;;;;;6189504;23;20427;-83
2021/07/04 08:06:50;;;;;;;6.00;5.50;;;28.40;79.50;;;;;;6212648;23;20485;-82
2021/07/04 08:09:17;;;;;;;5.77;5.33;;;29.60;78.10;;;;;;6196758;23;20979;-84
2021/07/04 08:11:44;;;;;;;5.83;5.43;;;31.00;73.30;;;;;;6187414;23;20414;-84
2021/07/04 08:14:11;;;;;;;5.70;5.30;;;32.40;69.10;;;;;;6202839;23;20509;-83
2021/07/04 08:16:38;;;;;;;6.20;5.70;;;32.70;64.80;;;;;;6195058;23;20449;-84
2021/07/04 08:19:06;;;;;;;6.37;5.87;;;32.70;64.00;;;;;;6204730;23;20408;-83
2021/07/04 08:21:33;;;;;;;5.50;5.10;;;33.50;63.90;;;;;;6187665;23;20413;-84
2021/07/04 08:24:00;;;;;;;5.67;5.17;;;34.50;60.70;;;;;;6196397;23;20484;-84
2021/07/04 08:26:27;;;;;;;7.10;5.30;;;35.90;57.60;;;;;;6190649;23;20517;-84
2021/07/04 08:28:54;;;;;;;5.60;5.20;;;36.40;55.30;;;;;;6189357;23;20941;-84
2021/07/04 08:31:23;;;;;;;6.70;6.00;;;35.80;54.10;;;;;;6187992;23;20496;-84
2021/07/04 08:33:51;;;;;;;6.10;5.50;;;36.00;54.70;;;;;;6190456;23;20408;-83
2021/07/04 08:36:21;;;;;;;6.07;5.67;;;36.70;53.40;;;;;;6190934;23;20461;-84
2021/07/04 08:38:48;;;;;;;5.60;5.20;;;36.80;52.60;;;;;;6193401;23;20939;-84
2021/07/04 09:37:44;;;;;;;5.53;5.13;;;29.40;61.20;;;;;;6203826;23;20458;-93
2021/07/04 09:40:24;;;;;;;5.50;5.10;;;28.40;64.00;;;;;;6228463;23;20413;-93
2021/07/04 10:09:08;;;;;;;5.10;4.70;;;29.50;65.00;;;;;;6183100;22;20510;-94
2021/07/04 10:11:47;;;;;;;4.77;4.33;;;30.20;64.20;;;;;;6200664;23;20505;-94
2021/07/04 10:14:49;;;;;;;5.70;5.27;;;31.90;61.00;;;;;;6202990;23;20405;-92
2021/07/04 10:17:43;;;;;;;4.90;4.27;;;33.10;56.40;;;;;;6181174;23;20452;-93
2021/07/04 10:20:25;;;;;;;5.00;4.60;;;32.70;54.60;;;;;;6193355;23;20418;-93
2021/07/04 10:31:57;;;;;;;4.40;4.00;;;34.40;53.40;;;;;;6284960;22;20701;-94
2021/07/04 10:37:32;;;;;;;4.67;4.27;;;32.70;55.40;;;;;;6289046;22;20505;-94
2021/07/04 10:40:14;;;;;;;4.30;4.00;;;31.20;56.90;;;;;;6286621;22;20409;-93
2021/07/04 10:42:43;;;;;;;3.83;3.53;;;30.40;57.90;;;;;;6289161;22;20403;-94
2021/07/04 10:45:32;;;;;;;4.20;3.90;;;30.00;60.70;;;;;;6292686;22;20461;-94
2021/07/04 10:48:24;;;;;;;4.27;3.97;;;29.80;59.70;;;;;;6293570;22;20388;-94
2021/07/04 10:51:13;;;;;;;5.17;4.77;;;29.00;62.10;;;;;;6290373;22;20395;-93
2021/07/04 10:54:03;;;;;;;4.73;4.30;;;28.90;64.20;;;;;;6285053;22;20483;-92
2021/07/04 10:56:44;;;;;;;3.70;3.40;;;29.00;64.60;;;;;;6302334;22;20433;-93
2021/07/04 10:59:15;;;;;;;4.10;3.80;;;29.10;61.60;;;;;;6292691;22;20401;-94
2021/07/04 11:01:54;;;;;;;4.33;3.93;;;28.70;63.50;;;;;;6289197;22;20418;-93
2021/07/04 11:04:57;;;;;;;3.77;3.47;;;28.40;64.50;;;;;;6293485;22;20433;-93
2021/07/04 11:07:25;;;;;;;4.27;3.97;;;28.10;66.30;;;;;;6286302;22;20411;-94
2021/07/04 11:10:18;;;;;;;4.43;4.13;;;27.90;66.90;;;;;;6287223;22;21084;-93
2021/07/04 11:12:46;;;;;;;4.93;4.53;;;27.60;67.40;;;;;;6291592;22;20441;-93
2021/07/04 11:15:26;;;;;;;4.50;4.10;;;27.60;69.30;;;;;;6294017;22;20438;-92
2021/07/04 11:18:08;;;;;;;4.13;3.83;;;27.50;66.60;;;;;;6285769;22;20407;-93
2021/07/04 11:20:57;;;;;;;4.97;4.47;;;27.30;67.50;;;;;;6285453;22;20417;-94
2021/07/04 11:23:26;;;;;;;5.30;4.70;;;27.30;69.80;;;;;;6285927;22;20414;-94
2021/07/04 11:26:00;;;;;;;5.43;4.97;;;27.10;69.60;;;;;;6292351;22;20461;-93
2021/07/04 11:42:45;;;;;;;4.50;4.20;;;28.60;66.60;;;;;;6263096;23;20503;-87
2021/07/04 11:59:04;;;;;;;;;;;;;;;;;;;;;
2021/07/04 12:26:13;;;;;;;7.60;6.87;;;26.90;70.80;;;;;;6147682;23;20969;-88
2021/07/04 12:57:50;;;;;;;5.40;5.00;;;31.40;61.60;;;;;;6150080;23;20944;-88
2021/07/04 13:01:11;;;;;;;5.70;5.30;;;31.90;60.20;;;;;;6274097;22;20407;-88
2021/07/04 13:56:58;;;;;;;6.40;5.90;;;28.60;75.90;;;;;;5865383;24;20910;-83
2021/07/04 13:59:53;;;;;;;6.53;5.93;;;28.00;77.30;;;;;;6054007;23;20408;-83
2021/07/04 14:02:37;;;;;;;6.97;6.47;;;27.40;80.10;;;;;;6132547;23;20414;-84
2021/07/04 14:05:50;;;;;;;7.00;6.50;;;26.90;83.10;;;;;;6120814;23;20415;-83
2021/07/04 14:11:21;;;;;;;6.43;5.80;;;26.20;86.10;;;;;;6125776;23;20806;-83
2021/07/04 14:14:02;;;;;;;6.00;5.50;;;26.30;84.40;;;;;;6127811;23;20411;-82
2021/07/04 14:16:50;;;;;;;5.33;4.83;;;26.80;81.80;;;;;;6132319;23;20435;-83
2021/07/04 14:26:14;;;;;;;4.40;4.10;;;31.00;65.30;;;;;;6123645;23;20419;-83
2021/07/04 14:28:54;;;;;;;5.07;4.50;;;31.00;62.00;;;;;;6125038;23;20942;-83
2021/07/04 14:34:53;;;;;;;3.53;3.27;;;29.10;63.80;;;;;;5999593;23;20478;-81
2021/07/04 14:37:56;;;;;;;3.00;2.70;;;28.60;63.90;;;;;;6066456;23;20538;-82
2021/07/04 14:40:46;;;;;;;4.43;3.60;;;28.20;64.50;;;;;;6150144;23;20766;-83
2021/07/04 14:43:55;;;;;;;4.07;3.67;;;27.90;64.50;;;;;;6096514;23;20524;-82
2021/07/04 15:00:15;;;;;;;3.77;3.47;;;27.20;70.90;;;;;;5962063;24;20442;-83
2021/07/04 15:03:23;;;;;;;4.70;4.30;;;27.10;72.60;;;;;;5854984;24;20454;-83
2021/07/04 15:06:49;;;;;;;4.33;3.70;;;27.10;73.50;;;;;;5898227;24;20419;-83
2021/07/04 15:09:20;;;;;;;4.07;3.70;;;27.00;74.60;;;;;;5933168;24;21086;-82
2021/07/04 15:11:52;;;;;;;4.60;4.20;;;26.90;75.40;;;;;;6012989;23;20443;-81
2021/07/04 15:17:16;;;;;;;4.90;4.40;;;27.10;76.40;;;;;;6195989;23;20488;-83
2021/07/04 15:20:27;;;;;;;;;;;;;;;;;;;;;
2021/07/04 15:23:01;;;;;;;5.00;4.60;;;27.30;75.30;;;;;;6206756;23;20410;-83
2021/07/04 15:25:52;;;;;;;4.80;4.30;;;27.60;75.70;;;;;;6210689;23;20465;-83
2021/07/04 15:28:26;;;;;;;4.60;4.30;;;27.70;74.90;;;;;;6209901;23;20431;-82
2021/07/04 15:31:18;;;;;;;5.20;4.40;;;27.70;75.30;;;;;;6186614;23;20437;-82
2021/07/04 15:34:39;;;;;;;;;;;;;;;;;;;;;
2021/07/04 15:37:17;;;;;;;5.67;4.57;;;27.40;76.30;;;;;;6078323;23;20903;-82
2021/07/04 15:39:48;;;;;;;5.50;4.93;;;26.80;77.70;;;;;;6094750;23;20425;-82
2021/07/04 15:42:19;;;;;;;3.63;3.33;;;26.50;79.60;;;;;;6151119;23;20933;-83
2021/07/04 15:44:55;;;;;;;3.80;3.50;;;26.00;79.10;;;;;;6185711;23;20402;-82
2021/07/04 15:48:01;;;;;;;4.23;3.60;;;25.80;80.60;;;;;;6187782;23;20481;-83
2021/07/04 15:50:30;;;;;;;3.20;3.00;;;25.60;80.10;;;;;;6186579;23;20477;-82
2021/07/04 15:53:07;;;;;;;3.83;3.53;;;25.50;80.70;;;;;;6185898;23;20464;-82
2021/07/04 15:55:39;;;;;;;5.00;4.50;;;25.30;80.70;;;;;;6185916;23;20402;-82
2021/07/04 15:58:10;;;;;;;6.50;5.00;;;25.30;82.30;;;;;;6193486;23;20454;-82
2021/07/04 16:00:51;;;;;;;5.50;5.07;;;25.10;84.80;;;;;;6191754;23;20417;-83
2021/07/04 16:03:22;;;;;;;5.43;4.93;;;24.90;87.30;;;;;;6186662;23;20393;-82
2021/07/04 16:05:54;;;;;;;6.00;4.53;;;24.70;89.20;;;;;;6185328;23;20908;-83
2021/07/04 16:08:20;;;;;;;3.60;3.33;;;24.40;89.30;;;;;;6187775;23;20940;-82
2021/07/04 16:14:27;;;;;;;3.20;2.93;;;24.20;89.80;;;;;;6162811;23;20401;-82
2021/07/04 16:16:53;;;;;;;3.47;3.17;;;24.10;88.30;;;;;;6185581;23;20393;-83
2021/07/04 16:19:21;;;;;;;3.30;3.00;;;24.10;89.00;;;;;;6186952;23;20416;-82
2021/07/04 16:21:48;;;;;;;2.53;2.33;;;24.00;87.90;;;;;;6188267;23;20405;-82
2021/07/04 16:24:16;;;;;;;3.33;2.87;;;24.00;84.90;;;;;;6187487;23;20413;-83
2021/07/04 16:26:42;;;;;;;3.60;2.73;;;23.90;84.70;;;;;;6187174;23;20398;-82
2021/07/04 16:29:09;;;;;;;2.60;2.40;;;23.80;83.80;;;;;;6192350;23;20426;-82
2021/07/04 16:31:38;;;;;;;2.77;2.10;;;23.80;82.60;;;;;;6195291;23;20981;-82
2021/07/04 16:34:06;;;;;;;6.90;1.70;;;23.70;82.80;;;;;;6190014;23;20417;-83
2021/07/04 16:36:34;;;;;;;2.10;1.90;;;23.60;83.00;;;;;;6186306;23;20408;-82
2021/07/04 16:39:01;;;;;;;3.13;1.77;;;23.50;83.30;;;;;;6186169;23;20448;-82
2021/07/04 16:41:28;;;;;;;4.10;2.87;;;23.30;83.20;;;;;;6200651;23;20405;-82
2021/07/04 16:43:55;;;;;;;1.70;1.53;;;23.30;82.80;;;;;;6189125;23;20414;-82
2021/07/04 16:46:22;;;;;;;2.30;1.20;;;23.20;82.60;;;;;;6186043;23;20407;-82
2021/07/04 16:48:50;;;;;;;1.93;1.73;;;23.10;82.10;;;;;;6185955;23;20434;-83
2021/07/04 16:51:18;;;;;;;2.63;1.60;;;23.00;82.60;;;;;;6186111;23;20403;-82
2021/07/04 16:53:46;;;;;;;3.90;2.40;;;22.90;83.20;;;;;;6188444;23;20510;-83
2021/07/04 16:56:13;;;;;;;1.97;1.43;;;22.80;83.40;;;;;;6187683;23;20415;-83
2021/07/04 16:58:40;;;;;;;1.47;1.37;;;22.80;83.90;;;;;;6202406;23;21047;-83
2021/07/04 17:01:07;;;;;;;2.20;2.00;;;22.80;84.20;;;;;;6209318;23;20413;-81
2021/07/04 17:03:34;;;;;;;2.07;1.43;;;22.80;85.60;;;;;;6197397;23;20405;-82
2021/07/04 17:06:02;;;;;;;2.53;2.30;;;22.80;84.80;;;;;;6201249;23;20432;-84
2021/07/04 17:20:30;;;;;;;1.80;1.50;;;22.70;84.90;;;;;;6260508;22;20451;-82
2021/07/04 17:23:13;;;;;;;1.50;1.40;;;22.60;84.50;;;;;;6249468;23;20473;-83
2021/07/04 17:32:50;;;;;;;1.37;1.27;;;22.40;83.70;;;;;;6142140;23;20476;-83
2021/07/04 17:35:41;;;;;;;6.83;5.30;;;22.30;84.40;;;;;;6251280;23;20755;-85
2021/07/04 17:38:27;;;;;;;8.10;6.17;;;22.20;84.60;;;;;;6262482;23;20451;-83
2021/07/04 19:19:17;;;;;;;;;;;;;;;;;;;;;
2021/07/04 19:37:00;;;;;;;1.70;1.53;;;19.00;99.90;;;;;;6050278;23;20431;-90
2021/07/04 19:57:34;;;;;;;1.60;1.50;;;18.70;99.90;;;;;;5944656;23;20409;-87
2021/07/04 20:03:52;;;;;;;1.70;1.40;;;18.50;99.90;;;;;;6052181;23;20805;-92
2021/07/04 20:07:06;;;;;;;10.93;7.33;;;18.40;99.90;;;;;;6057373;23;20500;-91
2021/07/04 20:16:33;;;;;;;1.73;1.27;;;18.30;99.90;;;;;;6260698;23;20388;-92
2021/07/04 20:19:46;;;;;;;1.30;1.20;;;18.30;99.90;;;;;;6267714;22;20455;-92
2021/07/04 20:59:43;;;;;;;1.20;1.10;;;18.50;99.90;;;;;;6020670;23;20453;-92
2021/07/04 21:02:39;;;;;;;1.13;1.00;;;18.50;99.90;;;;;;6257881;23;20431;-93
2021/07/04 21:05:22;;;;;;;1.83;1.30;;;18.50;99.90;;;;;;6257089;23;20414;-92
2021/07/04 21:08:13;;;;;;;3.30;1.40;;;18.60;99.90;;;;;;6254238;23;20400;-92
2021/07/04 21:11:06;;;;;;;3.93;3.57;;;18.60;99.90;;;;;;6253025;22;20908;-93
2021/07/04 21:13:41;;;;;;;3.87;3.33;;;18.60;99.90;;;;;;6252331;22;20458;-92
2021/07/04 21:23:18;;;;;;;8.53;7.83;;;18.60;99.90;;;;;;6259245;23;20438;-92
2021/07/04 21:25:52;;;;;;;9.90;8.60;;;18.60;99.90;;;;;;6261706;22;20499;-93
2021/07/04 21:32:21;;;;;;;7.00;6.27;;;18.60;99.90;;;;;;6137169;23;20459;-92
2021/07/04 21:50:53;;;;;;;2.50;2.30;;;18.30;99.90;;;;;;6205843;23;20470;-90
2021/07/04 21:53:48;;;;;;;;;;;;;;;;;;;;;
2021/07/04 21:57:09;;;;;;;2.57;2.20;;;18.30;99.90;;;;;;6263212;22;20400;-90
2021/07/04 21:59:57;;;;;;;1.60;1.50;;;18.40;99.90;;;;;;6209332;22;20446;-90
2021/07/04 22:06:00;;;;;;;;;;;;;;;;;;;;;
2021/07/04 22:19:14;;;;;;;4.00;1.20;;;18.50;99.90;;;;;;6247380;23;20478;-91
2021/07/04 22:22:28;;;;;;;2.57;2.37;;;18.50;99.90;;;;;;6250310;23;20436;-92
2021/07/04 22:25:50;;;;;;;1.17;1.07;;;18.50;99.90;;;;;;6250323;23;20373;-92
2021/07/04 22:28:37;;;;;;;1.70;1.03;;;18.60;99.90;;;;;;6268932;22;20413;-89
2021/07/04 22:31:35;;;;;;;1.20;1.00;;;18.60;99.90;;;;;;6266623;23;20873;-91
2021/07/04 22:37:10;;;;;;;1.13;1.00;;;18.60;99.90;;;;;;6275042;22;20612;-89
2021/07/04 22:39:44;;;;;;;2.83;1.10;;;18.60;99.90;;;;;;6263213;22;20445;-90
2021/07/04 22:45:53;;;;;;;1.40;1.10;;;18.50;99.90;;;;;;6229863;23;20415;-91
2021/07/04 22:55:22;;;;;;;1.07;0.97;;;18.30;99.90;;;;;;6246803;22;20457;-90
2021/07/04 22:58:07;;;;;;;1.73;1.00;;;18.20;99.90;;;;;;6253683;23;20430;-91
2021/07/04 23:07:46;;;;;;;1.83;1.10;;;18.10;99.90;;;;;;6071235;23;20854;-91
2021/07/04 23:17:20;;;;;;;1.20;1.10;;;18.10;99.90;;;;;;6216802;23;20392;-91
2021/07/04 23:19:57;;;;;;;1.00;0.90;;;18.10;99.90;;;;;;6218224;23;20468;-92
2021/07/04 23:22:41;;;;;;;1.53;1.20;;;18.10;99.90;;;;;;6251288;23;20802;-92
2021/07/04 23:25:53;;;;;;;2.50;1.00;;;18.20;99.90;;;;;;6253093;23;20495;-91
2021/07/04 23:28:57;;;;;;;1.10;0.90;;;18.20;99.90;;;;;;6254321;23;20415;-91
2021/07/04 23:34:36;;;;;;;1.37;1.27;;;18.30;99.90;;;;;;6241845;22;20442;-92
2021/07/04 23:37:54;;;;;;;1.23;1.00;;;18.20;99.90;;;;;;6250526;22;20503;-90
2021/07/04 23:47:16;;;;;;;1.30;1.10;;;18.20;99.90;;;;;;6251770;22;20443;-89
2021/07/04 23:53:02;;;;;;;1.33;1.20;;;18.30;99.90;;;;;;6235190;23;20455;-91
2021/07/04 23:58:35;;;;;;;1.53;1.33;;;18.40;99.90;;;;;;6243951;22;20451;-83
